sensor_id;sensor_type;location;lat;lon;timestamp;P1;durP1;ratioP1;P2;durP2;ratioP2
36833;SDS011;48003;52.084;5.224;2022-12-18T00:01:00;75.3;;;37.4;;
36833;SDS011;48003;52.084;5.224;2022-12-18T00:02:36;74.0;;;36.4;;
36833;SDS011;48003;52.084;5.224;2022-12-18T00:05:59;75.8;;;37.31;;
36833;SDS011;48003;52.084;5.224;2022-12-18T00:07:36;80.0;;;38.21;;
36833;SDS011;48003;52.084;5.224;2022-12-18T00:09:12;74.8;;;37.0;;
36833;SDS011;48003;52.084;5.224;2022-12-18T00:10:48;81.11;;;38.71;;
36833;SDS011;48003;52.084;5.224;2022-12-18T00:14:00;73.5;;;37.31;;
36833;SDS011;48003;52.084;5.224;2022-12-18T00:15:37;80.2;;;38.71;;
36833;SDS011;48003;52.084;5.224;2022-12-18T00:17:15;75.7;;;37.21;;
36833;SDS011;48003;52.084;5.224;2022-12-18T00:20:35;77.3;;;37.71;;
36833;SDS011;48003;52.084;5.224;2022-12-18T00:22:12;72.11;;;35.71;;
36833;SDS011;48003;52.084;5.224;2022-12-18T00:23:48;67.1;;;35.71;;
36833;SDS011;48003;52.084;5.224;2022-12-18T00:25:26;67.1;;;34.31;;
36833;SDS011;48003;52.084;5.224;2022-12-18T00:28:39;68.1;;;34.0;;
36833;SDS011;48003;52.084;5.224;2022-12-18T00:30:15;64.5;;;33.71;;
36833;SDS011;48003;52.084;5.224;2022-12-18T00:31:52;65.7;;;33.4;;
36833;SDS011;48003;52.084;5.224;2022-12-18T00:35:06;66.2;;;33.9;;
36833;SDS011;48003;52.084;5.224;2022-12-18T00:36:43;67.3;;;34.9;;
36833;SDS011;48003;52.084;5.224;2022-12-18T00:38:19;69.11;;;34.81;;
36833;SDS011;48003;52.084;5.224;2022-12-18T00:39:55;65.1;;;34.4;;
36833;SDS011;48003;52.084;5.224;2022-12-18T00:43:08;71.5;;;35.71;;
36833;SDS011;48003;52.084;5.224;2022-12-18T00:44:45;73.2;;;35.4;;
36833;SDS011;48003;52.084;5.224;2022-12-18T00:46:21;72.5;;;35.31;;
36833;SDS011;48003;52.084;5.224;2022-12-18T00:49:33;68.0;;;34.6;;
36833;SDS011;48003;52.084;5.224;2022-12-18T00:51:09;77.0;;;34.4;;
36833;SDS011;48003;52.084;5.224;2022-12-18T00:52:45;67.0;;;33.71;;
36833;SDS011;48003;52.084;5.224;2022-12-18T00:55:59;67.6;;;34.31;;
36833;SDS011;48003;52.084;5.224;2022-12-18T00:57:35;69.61;;;34.4;;
36833;SDS011;48003;52.084;5.224;2022-12-18T01:00:47;70.2;;;35.1;;
36833;SDS011;48003;52.084;5.224;2022-12-18T01:04:01;74.11;;;35.6;;
36833;SDS011;48003;52.084;5.224;2022-12-18T01:05:38;72.7;;;35.9;;
36833;SDS011;48003;52.084;5.224;2022-12-18T01:07:15;69.5;;;34.21;;
36833;SDS011;48003;52.084;5.224;2022-12-18T01:10:28;73.91;;;35.1;;
36833;SDS011;48003;52.084;5.224;2022-12-18T01:12:04;75.11;;;36.1;;
36833;SDS011;48003;52.084;5.224;2022-12-18T01:13:41;71.7;;;36.21;;
36833;SDS011;48003;52.084;5.224;2022-12-18T01:16:55;73.7;;;36.21;;
36833;SDS011;48003;52.084;5.224;2022-12-18T01:18:31;73.0;;;36.5;;
36833;SDS011;48003;52.084;5.224;2022-12-18T01:20:09;73.91;;;35.0;;
36833;SDS011;48003;52.084;5.224;2022-12-18T01:21:47;73.7;;;35.81;;
36833;SDS011;48003;52.084;5.224;2022-12-18T01:25:03;71.2;;;34.5;;
36833;SDS011;48003;52.084;5.224;2022-12-18T01:26:40;77.2;;;37.0;;
36833;SDS011;48003;52.084;5.224;2022-12-18T01:28:16;74.61;;;35.9;;
36833;SDS011;48003;52.084;5.224;2022-12-18T01:31:30;74.8;;;37.1;;
36833;SDS011;48003;52.084;5.224;2022-12-18T01:33:09;77.5;;;37.9;;
36833;SDS011;48003;52.084;5.224;2022-12-18T01:34:45;77.2;;;37.31;;
36833;SDS011;48003;52.084;5.224;2022-12-18T01:36:22;76.8;;;37.31;;
36833;SDS011;48003;52.084;5.224;2022-12-18T01:39:37;79.61;;;36.71;;
36833;SDS011;48003;52.084;5.224;2022-12-18T01:41:17;76.0;;;36.6;;
36833;SDS011;48003;52.084;5.224;2022-12-18T01:42:55;68.91;;;34.1;;
36833;SDS011;48003;52.084;5.224;2022-12-18T01:46:57;75.11;;;34.1;;
36833;SDS011;48003;52.084;5.224;2022-12-18T01:50:10;73.61;;;35.5;;
36833;SDS011;48003;52.084;5.224;2022-12-18T01:51:51;75.3;;;35.4;;
36833;SDS011;48003;52.084;5.224;2022-12-18T01:53:27;73.3;;;34.31;;
36833;SDS011;48003;52.084;5.224;2022-12-18T01:56:42;73.3;;;35.71;;
36833;SDS011;48003;52.084;5.224;2022-12-18T01:58:18;74.91;;;35.6;;
36833;SDS011;48003;52.084;5.224;2022-12-18T02:00:00;70.11;;;33.9;;
36833;SDS011;48003;52.084;5.224;2022-12-18T02:01:43;73.5;;;34.0;;
36833;SDS011;48003;52.084;5.224;2022-12-18T02:04:56;73.11;;;35.0;;
36833;SDS011;48003;52.084;5.224;2022-12-18T02:06:33;64.8;;;32.71;;
36833;SDS011;48003;52.084;5.224;2022-12-18T02:08:16;68.2;;;33.71;;
36833;SDS011;48003;52.084;5.224;2022-12-18T02:10:03;69.2;;;33.6;;
36833;SDS011;48003;52.084;5.224;2022-12-18T02:13:32;68.91;;;33.5;;
36833;SDS011;48003;52.084;5.224;2022-12-18T02:15:19;70.11;;;34.31;;
36833;SDS011;48003;52.084;5.224;2022-12-18T02:17:03;73.5;;;35.1;;
36833;SDS011;48003;52.084;5.224;2022-12-18T02:18:48;67.3;;;33.6;;
36833;SDS011;48003;52.084;5.224;2022-12-18T02:20:31;71.8;;;35.0;;
36833;SDS011;48003;52.084;5.224;2022-12-18T02:24:10;72.61;;;35.1;;
36833;SDS011;48003;52.084;5.224;2022-12-18T02:26:02;71.61;;;34.5;;
36833;SDS011;48003;52.084;5.224;2022-12-18T02:27:47;70.11;;;34.71;;
36833;SDS011;48003;52.084;5.224;2022-12-18T02:29:27;68.1;;;34.0;;
36833;SDS011;48003;52.084;5.224;2022-12-18T02:31:09;71.91;;;35.21;;
36833;SDS011;48003;52.084;5.224;2022-12-18T02:34:32;71.41;;;35.4;;
36833;SDS011;48003;52.084;5.224;2022-12-18T02:36:13;74.8;;;37.4;;
36833;SDS011;48003;52.084;5.224;2022-12-18T02:37:52;73.11;;;36.21;;
36833;SDS011;48003;52.084;5.224;2022-12-18T02:39:29;73.91;;;36.5;;
36833;SDS011;48003;52.084;5.224;2022-12-18T02:42:45;74.41;;;35.81;;
36833;SDS011;48003;52.084;5.224;2022-12-18T02:44:22;75.61;;;36.6;;
36833;SDS011;48003;52.084;5.224;2022-12-18T02:45:58;75.41;;;35.9;;
36833;SDS011;48003;52.084;5.224;2022-12-18T02:47:56;79.0;;;37.4;;
36833;SDS011;48003;52.084;5.224;2022-12-18T02:49:35;76.5;;;37.0;;
36833;SDS011;48003;52.084;5.224;2022-12-18T02:53:07;73.61;;;36.71;;
36833;SDS011;48003;52.084;5.224;2022-12-18T02:54:54;75.7;;;36.1;;
36833;SDS011;48003;52.084;5.224;2022-12-18T02:56:42;73.61;;;36.5;;
36833;SDS011;48003;52.084;5.224;2022-12-18T02:58:27;72.2;;;35.21;;
36833;SDS011;48003;52.084;5.224;2022-12-18T03:00:10;72.3;;;34.5;;
36833;SDS011;48003;52.084;5.224;2022-12-18T03:03:35;68.91;;;35.9;;
36833;SDS011;48003;52.084;5.224;2022-12-18T03:05:17;67.5;;;33.4;;
36833;SDS011;48003;52.084;5.224;2022-12-18T03:06:59;70.5;;;34.4;;
36833;SDS011;48003;52.084;5.224;2022-12-18T03:08:42;66.5;;;33.71;;
36833;SDS011;48003;52.084;5.224;2022-12-18T03:12:05;71.5;;;34.6;;
36833;SDS011;48003;52.084;5.224;2022-12-18T03:13:50;70.7;;;34.4;;
36833;SDS011;48003;52.084;5.224;2022-12-18T03:15:34;71.8;;;34.31;;
36833;SDS011;48003;52.084;5.224;2022-12-18T03:17:14;71.2;;;35.5;;
36833;SDS011;48003;52.084;5.224;2022-12-18T03:18:56;75.7;;;35.4;;
36833;SDS011;48003;52.084;5.224;2022-12-18T03:22:19;67.2;;;35.21;;
36833;SDS011;48003;52.084;5.224;2022-12-18T03:23:59;71.5;;;36.0;;
36833;SDS011;48003;52.084;5.224;2022-12-18T03:25:38;79.7;;;36.81;;
36833;SDS011;48003;52.084;5.224;2022-12-18T03:27:19;75.3;;;36.9;;
36833;SDS011;48003;52.084;5.224;2022-12-18T03:30:43;77.5;;;37.4;;
36833;SDS011;48003;52.084;5.224;2022-12-18T03:32:23;69.0;;;34.9;;
36833;SDS011;48003;52.084;5.224;2022-12-18T03:34:05;74.3;;;36.1;;
36833;SDS011;48003;52.084;5.224;2022-12-18T03:35:48;68.7;;;35.1;;
36833;SDS011;48003;52.084;5.224;2022-12-18T03:39:02;68.7;;;35.1;;
36833;SDS011;48003;52.084;5.224;2022-12-18T03:40:43;66.7;;;34.9;;
36833;SDS011;48003;52.084;5.224;2022-12-18T03:42:37;68.2;;;34.21;;
36833;SDS011;48003;52.084;5.224;2022-12-18T03:44:23;69.91;;;34.6;;
36833;SDS011;48003;52.084;5.224;2022-12-18T03:46:08;68.91;;;33.8;;
36833;SDS011;48003;52.084;5.224;2022-12-18T03:49:38;66.6;;;35.31;;
36833;SDS011;48003;52.084;5.224;2022-12-18T03:51:24;65.6;;;33.1;;
36833;SDS011;48003;52.084;5.224;2022-12-18T03:53:09;60.1;;;31.9;;
36833;SDS011;48003;52.084;5.224;2022-12-18T03:54:54;60.4;;;32.3;;
36833;SDS011;48003;52.084;5.224;2022-12-18T03:56:35;58.7;;;31.2;;
36833;SDS011;48003;52.084;5.224;2022-12-18T03:59:57;60.4;;;32.0;;
36833;SDS011;48003;52.084;5.224;2022-12-18T04:01:38;64.8;;;33.1;;
36833;SDS011;48003;52.084;5.224;2022-12-18T04:03:18;65.91;;;33.21;;
36833;SDS011;48003;52.084;5.224;2022-12-18T04:04:57;64.1;;;32.71;;
36833;SDS011;48003;52.084;5.224;2022-12-18T04:08:16;59.9;;;31.1;;
36833;SDS011;48003;52.084;5.224;2022-12-18T04:09:53;59.6;;;31.4;;
36833;SDS011;48003;52.084;5.224;2022-12-18T04:11:32;63.0;;;31.1;;
36833;SDS011;48003;52.084;5.224;2022-12-18T04:14:45;59.1;;;30.9;;
36833;SDS011;48003;52.084;5.224;2022-12-18T04:16:21;60.1;;;32.4;;
36833;SDS011;48003;52.084;5.224;2022-12-18T04:17:57;60.9;;;32.4;;
36833;SDS011;48003;52.084;5.224;2022-12-18T04:19:33;55.8;;;30.9;;
36833;SDS011;48003;52.084;5.224;2022-12-18T04:22:47;59.2;;;31.7;;
36833;SDS011;48003;52.084;5.224;2022-12-18T04:24:24;55.7;;;29.1;;
36833;SDS011;48003;52.084;5.224;2022-12-18T04:26:00;51.9;;;27.5;;
36833;SDS011;48003;52.084;5.224;2022-12-18T04:29:12;50.3;;;27.0;;
36833;SDS011;48003;52.084;5.224;2022-12-18T04:30:49;51.2;;;27.5;;
36833;SDS011;48003;52.084;5.224;2022-12-18T04:32:24;47.3;;;27.3;;
36833;SDS011;48003;52.084;5.224;2022-12-18T04:35:37;52.3;;;27.1;;
36833;SDS011;48003;52.084;5.224;2022-12-18T04:37:13;42.7;;;25.4;;
36833;SDS011;48003;52.084;5.224;2022-12-18T04:38:49;45.5;;;25.9;;
36833;SDS011;48003;52.084;5.224;2022-12-18T04:40:25;45.8;;;25.4;;
36833;SDS011;48003;52.084;5.224;2022-12-18T04:43:38;46.7;;;26.3;;
36833;SDS011;48003;52.084;5.224;2022-12-18T04:45:14;48.9;;;24.8;;
36833;SDS011;48003;52.084;5.224;2022-12-18T04:46:50;43.5;;;24.0;;
36833;SDS011;48003;52.084;5.224;2022-12-18T04:50:03;45.0;;;23.8;;
36833;SDS011;48003;52.084;5.224;2022-12-18T04:51:40;41.8;;;23.2;;
36833;SDS011;48003;52.084;5.224;2022-12-18T04:53:16;42.9;;;23.2;;
36833;SDS011;48003;52.084;5.224;2022-12-18T04:56:29;43.7;;;24.1;;
36833;SDS011;48003;52.084;5.224;2022-12-18T04:58:07;43.7;;;24.1;;
36833;SDS011;48003;52.084;5.224;2022-12-18T04:59:43;37.5;;;21.5;;
36833;SDS011;48003;52.084;5.224;2022-12-18T05:02:55;37.9;;;21.4;;
36833;SDS011;48003;52.084;5.224;2022-12-18T05:04:31;38.1;;;21.2;;
36833;SDS011;48003;52.084;5.224;2022-12-18T05:06:08;35.71;;;21.1;;
36833;SDS011;48003;52.084;5.224;2022-12-18T05:07:45;38.6;;;21.6;;
36833;SDS011;48003;52.084;5.224;2022-12-18T05:10:59;36.4;;;20.8;;
36833;SDS011;48003;52.084;5.224;2022-12-18T05:12:37;35.81;;;20.6;;
36833;SDS011;48003;52.084;5.224;2022-12-18T05:14:13;33.0;;;19.91;;
36833;SDS011;48003;52.084;5.224;2022-12-18T05:17:28;39.4;;;22.5;;
36833;SDS011;48003;52.084;5.224;2022-12-18T05:19:04;38.6;;;20.9;;
36833;SDS011;48003;52.084;5.224;2022-12-18T05:20:41;35.1;;;20.8;;
36833;SDS011;48003;52.084;5.224;2022-12-18T05:22:17;34.81;;;20.2;;
36833;SDS011;48003;52.084;5.224;2022-12-18T05:25:29;40.1;;;21.6;;
36833;SDS011;48003;52.084;5.224;2022-12-18T05:27:05;35.21;;;20.6;;
36833;SDS011;48003;52.084;5.224;2022-12-18T05:28:42;35.31;;;20.41;;
36833;SDS011;48003;52.084;5.224;2022-12-18T05:31:54;36.71;;;21.4;;
36833;SDS011;48003;52.084;5.224;2022-12-18T05:33:31;36.31;;;20.7;;
36833;SDS011;48003;52.084;5.224;2022-12-18T05:35:10;35.1;;;20.9;;
36833;SDS011;48003;52.084;5.224;2022-12-18T05:38:24;32.71;;;18.8;;
36833;SDS011;48003;52.084;5.224;2022-12-18T05:40:02;36.21;;;19.91;;
36833;SDS011;48003;52.084;5.224;2022-12-18T05:41:40;33.71;;;20.3;;
36833;SDS011;48003;52.084;5.224;2022-12-18T05:43:16;35.5;;;20.8;;
36833;SDS011;48003;52.084;5.224;2022-12-18T05:46:30;34.4;;;20.11;;
36833;SDS011;48003;52.084;5.224;2022-12-18T05:48:06;34.71;;;20.11;;
36833;SDS011;48003;52.084;5.224;2022-12-18T05:49:43;35.1;;;20.41;;
36833;SDS011;48003;52.084;5.224;2022-12-18T05:52:57;35.1;;;19.7;;
36833;SDS011;48003;52.084;5.224;2022-12-18T05:54:34;33.0;;;19.2;;
36833;SDS011;48003;52.084;5.224;2022-12-18T05:56:11;32.5;;;19.61;;
36833;SDS011;48003;52.084;5.224;2022-12-18T05:57:50;32.3;;;20.11;;
36833;SDS011;48003;52.084;5.224;2022-12-18T06:01:06;30.8;;;18.91;;
36833;SDS011;48003;52.084;5.224;2022-12-18T06:02:46;34.1;;;19.11;;
36833;SDS011;48003;52.084;5.224;2022-12-18T06:04:23;34.9;;;20.0;;
36833;SDS011;48003;52.084;5.224;2022-12-18T06:07:35;34.1;;;19.5;;
36833;SDS011;48003;52.084;5.224;2022-12-18T06:09:11;34.0;;;19.3;;
36833;SDS011;48003;52.084;5.224;2022-12-18T06:10:50;34.9;;;19.5;;
36833;SDS011;48003;52.084;5.224;2022-12-18T06:14:04;32.4;;;19.2;;
36833;SDS011;48003;52.084;5.224;2022-12-18T06:15:41;32.3;;;19.0;;
36833;SDS011;48003;52.084;5.224;2022-12-18T06:17:17;29.2;;;17.8;;
36833;SDS011;48003;52.084;5.224;2022-12-18T06:18:55;28.3;;;17.41;;
36833;SDS011;48003;52.084;5.224;2022-12-18T06:22:08;28.1;;;18.11;;
36833;SDS011;48003;52.084;5.224;2022-12-18T06:23:44;28.5;;;17.5;;
36833;SDS011;48003;52.084;5.224;2022-12-18T06:25:20;30.1;;;17.8;;
36833;SDS011;48003;52.084;5.224;2022-12-18T06:28:33;30.2;;;16.4;;
36833;SDS011;48003;52.084;5.224;2022-12-18T06:30:09;26.0;;;16.11;;
36833;SDS011;48003;52.084;5.224;2022-12-18T06:31:46;27.6;;;16.11;;
36833;SDS011;48003;52.084;5.224;2022-12-18T06:35:03;29.4;;;16.11;;
36833;SDS011;48003;52.084;5.224;2022-12-18T06:36:40;28.2;;;16.7;;
36833;SDS011;48003;52.084;5.224;2022-12-18T06:38:16;27.7;;;16.9;;
36833;SDS011;48003;52.084;5.224;2022-12-18T06:39:52;31.2;;;17.91;;
36833;SDS011;48003;52.084;5.224;2022-12-18T06:43:04;28.4;;;17.0;;
36833;SDS011;48003;52.084;5.224;2022-12-18T06:44:42;28.2;;;17.3;;
36833;SDS011;48003;52.084;5.224;2022-12-18T06:46:18;30.4;;;17.8;;
36833;SDS011;48003;52.084;5.224;2022-12-18T06:49:31;28.4;;;17.3;;
36833;SDS011;48003;52.084;5.224;2022-12-18T06:51:07;30.0;;;17.7;;
36833;SDS011;48003;52.084;5.224;2022-12-18T06:52:44;28.2;;;17.11;;
36833;SDS011;48003;52.084;5.224;2022-12-18T06:54:20;26.6;;;16.5;;
36833;SDS011;48003;52.084;5.224;2022-12-18T06:57:36;27.0;;;16.0;;
36833;SDS011;48003;52.084;5.224;2022-12-18T06:59:13;26.2;;;16.11;;
36833;SDS011;48003;52.084;5.224;2022-12-18T07:00:50;27.0;;;15.8;;
36833;SDS011;48003;52.084;5.224;2022-12-18T07:04:03;25.6;;;15.6;;
36833;SDS011;48003;52.084;5.224;2022-12-18T07:05:39;27.8;;;16.11;;
36833;SDS011;48003;52.084;5.224;2022-12-18T07:07:16;27.8;;;15.8;;
36833;SDS011;48003;52.084;5.224;2022-12-18T07:10:31;25.0;;;16.3;;
36833;SDS011;48003;52.084;5.224;2022-12-18T07:12:07;26.4;;;16.0;;
36833;SDS011;48003;52.084;5.224;2022-12-18T07:13:43;24.5;;;15.2;;
36833;SDS011;48003;52.084;5.224;2022-12-18T07:15:20;26.3;;;15.5;;
36833;SDS011;48003;52.084;5.224;2022-12-18T07:18:33;25.8;;;15.8;;
36833;SDS011;48003;52.084;5.224;2022-12-18T07:20:09;26.3;;;15.6;;
36833;SDS011;48003;52.084;5.224;2022-12-18T07:21:46;26.1;;;15.3;;
36833;SDS011;48003;52.084;5.224;2022-12-18T07:24:58;24.7;;;15.5;;
36833;SDS011;48003;52.084;5.224;2022-12-18T07:26:35;27.7;;;16.3;;
36833;SDS011;48003;52.084;5.224;2022-12-18T07:28:11;26.5;;;16.11;;
36833;SDS011;48003;52.084;5.224;2022-12-18T07:31:24;24.9;;;15.0;;
36833;SDS011;48003;52.084;5.224;2022-12-18T07:33:00;24.3;;;15.6;;
36833;SDS011;48003;52.084;5.224;2022-12-18T07:34:36;26.7;;;15.9;;
36833;SDS011;48003;52.084;5.224;2022-12-18T07:36:13;25.8;;;16.3;;
36833;SDS011;48003;52.084;5.224;2022-12-18T07:39:26;25.4;;;16.3;;
36833;SDS011;48003;52.084;5.224;2022-12-18T07:41:03;27.5;;;16.4;;
36833;SDS011;48003;52.084;5.224;2022-12-18T07:42:40;27.1;;;15.9;;
36833;SDS011;48003;52.084;5.224;2022-12-18T07:45:54;27.4;;;16.5;;
36833;SDS011;48003;52.084;5.224;2022-12-18T07:47:33;24.2;;;15.4;;
36833;SDS011;48003;52.084;5.224;2022-12-18T07:49:10;26.6;;;15.7;;
36833;SDS011;48003;52.084;5.224;2022-12-18T07:52:22;26.9;;;16.11;;
36833;SDS011;48003;52.084;5.224;2022-12-18T07:53:59;22.5;;;15.0;;
36833;SDS011;48003;52.084;5.224;2022-12-18T07:55:35;24.7;;;15.3;;
36833;SDS011;48003;52.084;5.224;2022-12-18T07:57:11;26.5;;;15.7;;
36833;SDS011;48003;52.084;5.224;2022-12-18T08:00:24;24.4;;;15.2;;
36833;SDS011;48003;52.084;5.224;2022-12-18T08:02:00;25.5;;;15.8;;
36833;SDS011;48003;52.084;5.224;2022-12-18T08:03:37;23.2;;;14.8;;
36833;SDS011;48003;52.084;5.224;2022-12-18T08:06:51;24.8;;;16.0;;
36833;SDS011;48003;52.084;5.224;2022-12-18T08:08:27;24.9;;;16.2;;
36833;SDS011;48003;52.084;5.224;2022-12-18T08:10:04;25.7;;;16.0;;
36833;SDS011;48003;52.084;5.224;2022-12-18T08:13:19;24.7;;;15.4;;
36833;SDS011;48003;52.084;5.224;2022-12-18T08:14:54;22.9;;;15.1;;
36833;SDS011;48003;52.084;5.224;2022-12-18T08:16:31;23.3;;;15.3;;
36833;SDS011;48003;52.084;5.224;2022-12-18T08:18:08;25.6;;;16.4;;
36833;SDS011;48003;52.084;5.224;2022-12-18T08:21:20;24.1;;;16.0;;
36833;SDS011;48003;52.084;5.224;2022-12-18T08:22:58;23.5;;;15.1;;
36833;SDS011;48003;52.084;5.224;2022-12-18T08:24:34;24.4;;;15.2;;
36833;SDS011;48003;52.084;5.224;2022-12-18T08:27:47;22.3;;;14.5;;
36833;SDS011;48003;52.084;5.224;2022-12-18T08:29:24;24.7;;;15.5;;
36833;SDS011;48003;52.084;5.224;2022-12-18T08:31:00;22.4;;;14.2;;
36833;SDS011;48003;52.084;5.224;2022-12-18T08:34:11;21.9;;;14.4;;
36833;SDS011;48003;52.084;5.224;2022-12-18T08:35:47;23.0;;;14.8;;
36833;SDS011;48003;52.084;5.224;2022-12-18T08:37:24;26.4;;;15.4;;
36833;SDS011;48003;52.084;5.224;2022-12-18T08:39:00;27.0;;;15.0;;
36833;SDS011;48003;52.084;5.224;2022-12-18T08:42:12;22.9;;;14.3;;
36833;SDS011;48003;52.084;5.224;2022-12-18T08:43:48;23.1;;;14.8;;
36833;SDS011;48003;52.084;5.224;2022-12-18T08:45:25;24.4;;;15.8;;
36833;SDS011;48003;52.084;5.224;2022-12-18T08:48:37;23.8;;;14.6;;
36833;SDS011;48003;52.084;5.224;2022-12-18T08:50:14;23.7;;;14.4;;
36833;SDS011;48003;52.084;5.224;2022-12-18T08:51:53;24.0;;;15.1;;
36833;SDS011;48003;52.084;5.224;2022-12-18T08:55:07;25.6;;;15.6;;
36833;SDS011;48003;52.084;5.224;2022-12-18T08:56:44;25.4;;;15.7;;
36833;SDS011;48003;52.084;5.224;2022-12-18T08:58:21;27.3;;;15.8;;
36833;SDS011;48003;52.084;5.224;2022-12-18T08:59:57;26.5;;;15.7;;
36833;SDS011;48003;52.084;5.224;2022-12-18T09:03:10;25.0;;;15.4;;
36833;SDS011;48003;52.084;5.224;2022-12-18T09:04:48;23.4;;;14.8;;
36833;SDS011;48003;52.084;5.224;2022-12-18T09:06:24;23.1;;;14.7;;
36833;SDS011;48003;52.084;5.224;2022-12-18T09:09:36;24.1;;;15.2;;
36833;SDS011;48003;52.084;5.224;2022-12-18T09:11:13;22.6;;;14.4;;
36833;SDS011;48003;52.084;5.224;2022-12-18T09:12:54;25.2;;;15.5;;
36833;SDS011;48003;52.084;5.224;2022-12-18T09:14:30;24.1;;;14.9;;
36833;SDS011;48003;52.084;5.224;2022-12-18T09:17:43;25.0;;;14.8;;
36833;SDS011;48003;52.084;5.224;2022-12-18T09:19:19;24.0;;;14.7;;
36833;SDS011;48003;52.084;5.224;2022-12-18T09:20:55;25.6;;;15.2;;
36833;SDS011;48003;52.084;5.224;2022-12-18T09:24:08;22.4;;;14.1;;
36833;SDS011;48003;52.084;5.224;2022-12-18T09:25:48;24.7;;;15.1;;
36833;SDS011;48003;52.084;5.224;2022-12-18T09:27:25;24.0;;;14.6;;
36833;SDS011;48003;52.084;5.224;2022-12-18T09:30:38;24.0;;;14.9;;
36833;SDS011;48003;52.084;5.224;2022-12-18T09:32:16;23.6;;;15.5;;
36833;SDS011;48003;52.084;5.224;2022-12-18T09:33:54;27.1;;;14.8;;
36833;SDS011;48003;52.084;5.224;2022-12-18T09:35:30;25.3;;;14.3;;
36833;SDS011;48003;52.084;5.224;2022-12-18T09:38:43;22.4;;;14.4;;
36833;SDS011;48003;52.084;5.224;2022-12-18T09:40:22;25.0;;;15.0;;
36833;SDS011;48003;52.084;5.224;2022-12-18T09:42:01;23.2;;;15.0;;
36833;SDS011;48003;52.084;5.224;2022-12-18T09:45:21;29.0;;;17.7;;
36833;SDS011;48003;52.084;5.224;2022-12-18T09:47:01;25.4;;;15.3;;
36833;SDS011;48003;52.084;5.224;2022-12-18T09:48:46;23.2;;;14.8;;
36833;SDS011;48003;52.084;5.224;2022-12-18T09:50:27;24.2;;;14.7;;
36833;SDS011;48003;52.084;5.224;2022-12-18T09:53:52;23.1;;;15.0;;
36833;SDS011;48003;52.084;5.224;2022-12-18T09:55:33;24.5;;;14.9;;
36833;SDS011;48003;52.084;5.224;2022-12-18T09:57:14;23.0;;;14.7;;
36833;SDS011;48003;52.084;5.224;2022-12-18T09:58:55;23.4;;;15.0;;
36833;SDS011;48003;52.084;5.224;2022-12-18T10:00:35;24.7;;;15.3;;
36833;SDS011;48003;52.084;5.224;2022-12-18T10:03:52;24.4;;;14.6;;
36833;SDS011;48003;52.084;5.224;2022-12-18T10:05:33;25.4;;;15.0;;
36833;SDS011;48003;52.084;5.224;2022-12-18T10:07:24;21.9;;;13.9;;
36833;SDS011;48003;52.084;5.224;2022-12-18T10:09:15;22.1;;;13.9;;
36833;SDS011;48003;52.084;5.224;2022-12-18T10:12:45;23.8;;;14.0;;
36833;SDS011;48003;52.084;5.224;2022-12-18T10:14:34;23.1;;;15.1;;
36833;SDS011;48003;52.084;5.224;2022-12-18T10:16:17;23.2;;;15.2;;
36833;SDS011;48003;52.084;5.224;2022-12-18T10:18:03;23.6;;;14.5;;
36833;SDS011;48003;52.084;5.224;2022-12-18T10:19:58;21.3;;;14.4;;
36833;SDS011;48003;52.084;5.224;2022-12-18T10:21:39;23.4;;;14.6;;
36833;SDS011;48003;52.084;5.224;2022-12-18T10:25:14;22.8;;;14.4;;
36833;SDS011;48003;52.084;5.224;2022-12-18T10:26:56;22.5;;;14.8;;
36833;SDS011;48003;52.084;5.224;2022-12-18T10:28:45;22.4;;;14.1;;
36833;SDS011;48003;52.084;5.224;2022-12-18T10:30:23;20.41;;;13.5;;
36833;SDS011;48003;52.084;5.224;2022-12-18T10:32:01;21.9;;;14.5;;
36833;SDS011;48003;52.084;5.224;2022-12-18T10:35:15;21.2;;;13.9;;
36833;SDS011;48003;52.084;5.224;2022-12-18T10:36:55;23.8;;;14.5;;
36833;SDS011;48003;52.084;5.224;2022-12-18T10:38:32;22.0;;;14.6;;
36833;SDS011;48003;52.084;5.224;2022-12-18T10:41:49;21.9;;;14.2;;
36833;SDS011;48003;52.084;5.224;2022-12-18T10:43:26;22.8;;;13.7;;
36833;SDS011;48003;52.084;5.224;2022-12-18T10:45:08;21.5;;;14.1;;
36833;SDS011;48003;52.084;5.224;2022-12-18T10:46:50;24.3;;;14.3;;
36833;SDS011;48003;52.084;5.224;2022-12-18T10:50:11;21.7;;;14.2;;
36833;SDS011;48003;52.084;5.224;2022-12-18T10:52:04;22.4;;;13.7;;
36833;SDS011;48003;52.084;5.224;2022-12-18T10:53:44;20.41;;;13.4;;
36833;SDS011;48003;52.084;5.224;2022-12-18T10:55:31;23.4;;;15.0;;
36833;SDS011;48003;52.084;5.224;2022-12-18T10:57:14;22.6;;;14.3;;
36833;SDS011;48003;52.084;5.224;2022-12-18T10:59:07;22.8;;;13.8;;
36833;SDS011;48003;52.084;5.224;2022-12-18T11:02:39;21.4;;;13.6;;
36833;SDS011;48003;52.084;5.224;2022-12-18T11:04:16;22.6;;;13.8;;
36833;SDS011;48003;52.084;5.224;2022-12-18T11:06:01;21.8;;;13.9;;
36833;SDS011;48003;52.084;5.224;2022-12-18T11:07:46;22.7;;;13.7;;
36833;SDS011;48003;52.084;5.224;2022-12-18T11:11:02;22.1;;;13.5;;
36833;SDS011;48003;52.084;5.224;2022-12-18T11:12:43;22.1;;;14.0;;
36833;SDS011;48003;52.084;5.224;2022-12-18T11:14:21;21.3;;;13.7;;
36833;SDS011;48003;52.084;5.224;2022-12-18T11:16:00;20.3;;;13.2;;
36833;SDS011;48003;52.084;5.224;2022-12-18T11:19:17;20.2;;;13.1;;
36833;SDS011;48003;52.084;5.224;2022-12-18T11:21:00;22.3;;;14.1;;
36833;SDS011;48003;52.084;5.224;2022-12-18T11:22:44;20.9;;;13.5;;
36833;SDS011;48003;52.084;5.224;2022-12-18T11:24:32;22.3;;;13.8;;
36833;SDS011;48003;52.084;5.224;2022-12-18T11:27:51;23.0;;;14.1;;
36833;SDS011;48003;52.084;5.224;2022-12-18T11:29:31;20.6;;;13.4;;
36833;SDS011;48003;52.084;5.224;2022-12-18T11:31:17;21.5;;;13.5;;
36833;SDS011;48003;52.084;5.224;2022-12-18T11:33:02;20.5;;;13.0;;
36833;SDS011;48003;52.084;5.224;2022-12-18T11:34:42;21.0;;;13.5;;
36833;SDS011;48003;52.084;5.224;2022-12-18T11:38:02;21.0;;;13.1;;
36833;SDS011;48003;52.084;5.224;2022-12-18T11:39:49;22.0;;;13.1;;
36833;SDS011;48003;52.084;5.224;2022-12-18T11:41:32;20.6;;;13.1;;
36833;SDS011;48003;52.084;5.224;2022-12-18T11:43:17;19.11;;;12.8;;
36833;SDS011;48003;52.084;5.224;2022-12-18T11:46:59;18.61;;;12.3;;
36833;SDS011;48003;52.084;5.224;2022-12-18T11:48:41;21.0;;;13.0;;
36833;SDS011;48003;52.084;5.224;2022-12-18T11:50:23;21.7;;;12.7;;
36833;SDS011;48003;52.084;5.224;2022-12-18T11:52:04;20.3;;;12.8;;
36833;SDS011;48003;52.084;5.224;2022-12-18T11:53:51;19.7;;;13.2;;
36833;SDS011;48003;52.084;5.224;2022-12-18T11:57:27;20.0;;;12.4;;
36833;SDS011;48003;52.084;5.224;2022-12-18T11:59:13;19.91;;;13.1;;
36833;SDS011;48003;52.084;5.224;2022-12-18T12:01:01;20.0;;;12.9;;
36833;SDS011;48003;52.084;5.224;2022-12-18T12:03:07;19.61;;;12.6;;
36833;SDS011;48003;52.084;5.224;2022-12-18T12:06:37;20.8;;;13.0;;
36833;SDS011;48003;52.084;5.224;2022-12-18T12:08:24;23.1;;;14.3;;
36833;SDS011;48003;52.084;5.224;2022-12-18T12:12:10;20.8;;;13.5;;
36833;SDS011;48003;52.084;5.224;2022-12-18T12:14:07;20.8;;;13.0;;
36833;SDS011;48003;52.084;5.224;2022-12-18T12:16:12;20.9;;;13.4;;
36833;SDS011;48003;52.084;5.224;2022-12-18T12:17:54;20.41;;;13.1;;
36833;SDS011;48003;52.084;5.224;2022-12-18T12:19:44;22.0;;;14.0;;
36833;SDS011;48003;52.084;5.224;2022-12-18T12:21:28;19.5;;;13.1;;
36833;SDS011;48003;52.084;5.224;2022-12-18T12:23:17;21.6;;;13.8;;
36833;SDS011;48003;52.084;5.224;2022-12-18T12:25:07;20.5;;;13.3;;
36833;SDS011;48003;52.084;5.224;2022-12-18T12:27:00;19.41;;;13.4;;
36833;SDS011;48003;52.084;5.224;2022-12-18T12:30:43;20.11;;;13.8;;
36833;SDS011;48003;52.084;5.224;2022-12-18T12:32:37;22.1;;;13.9;;
36833;SDS011;48003;52.084;5.224;2022-12-18T12:34:26;20.3;;;12.7;;
36833;SDS011;48003;52.084;5.224;2022-12-18T12:36:12;20.7;;;13.0;;
36833;SDS011;48003;52.084;5.224;2022-12-18T12:38:02;21.0;;;13.5;;